Time;durP1;ratioP1;P1;durP2;ratioP2;P2;SDS_P1;SDS_P2;PMS_P1;PMS_P2;Temp;Humidity;BMP_temperature;BMP_pressure;BME280_temperature;BME280_humidity;BME280_pressure;Samples;Min_cycle;Max_cycle;Signal;HPM_P1;HPM_P2
2022/01/19 00:01:00;;;;;;;0.40;0.30;;;;;;;6.19;93.25;102754.84;5093369;28;20440;-70
2022/01/19 00:03:27;;;;;;;0.40;0.30;;;;;;;6.21;92.92;102755.47;5092920;28;20475;-70
2022/01/19 00:05:54;;;;;;;0.40;0.27;;;;;;;6.22;92.77;102761.66;5093356;28;20449;-70
2022/01/19 00:08:21;;;;;;;0.40;0.30;;;;;;;6.17;92.25;102751.56;5093219;28;20512;-70
2022/01/19 00:10:50;;;;;;;0.40;0.30;;;;;;;6.16;92.39;102747.22;5093281;28;20449;-70
2022/01/19 00:13:18;;;;;;;0.40;0.20;;;;;;;6.13;92.49;102749.53;5092856;28;20874;-70
2022/01/19 00:15:45;;;;;;;0.40;0.30;;;;;;;6.13;92.57;102747.66;5093262;28;20437;-70
2022/01/19 00:18:12;;;;;;;0.40;0.20;;;;;;;6.12;92.40;102743.31;5093225;28;20440;-70
2022/01/19 00:20:40;;;;;;;1.27;1.17;;;;;;;6.14;92.64;102740.41;5093348;28;20452;-70
2022/01/19 00:23:06;;;;;;;0.40;0.30;;;;;;;6.11;92.82;102740.81;5093066;28;20468;-70
2022/01/19 00:25:33;;;;;;;0.83;0.83;;;;;;;6.14;92.51;102729.63;5093170;28;20463;-70
2022/01/19 00:28:00;;;;;;;0.40;0.30;;;;;;;6.13;92.57;102723.44;5093032;28;20565;-70
2022/01/19 00:30:27;;;;;;;0.40;0.30;;;;;;;6.15;92.46;102715.97;5093086;28;20437;-70
2022/01/19 00:32:53;;;;;;;0.40;0.30;;;;;;;6.09;92.61;102722.22;5092683;28;20979;-70
2022/01/19 00:35:20;;;;;;;0.40;0.30;;;;;;;6.11;92.63;102720.16;5093035;28;20440;-69
2022/01/19 00:37:47;;;;;;;0.40;0.30;;;;;;;6.10;92.83;102717.66;5092998;28;20440;-70
2022/01/19 00:40:15;;;;;;;0.40;0.20;;;;;;;6.13;92.56;102712.69;5095304;28;20462;-70
2022/01/19 00:42:42;;;;;;;0.40;0.30;;;;;;;6.11;92.53;102720.16;5096896;28;20468;-69
2022/01/19 00:45:10;;;;;;;0.40;0.20;;;;;;;6.02;92.63;102716.06;5096799;28;20845;-69
2022/01/19 00:47:36;;;;;;;0.40;0.20;;;;;;;6.02;92.72;102714.22;5096772;28;20480;-69
2022/01/19 00:50:04;;;;;;;0.40;0.27;;;;;;;6.06;92.87;102701.13;5096868;28;20452;-67
2022/01/19 00:52:31;;;;;;;0.40;0.20;;;;;;;6.06;92.51;102701.97;5096713;28;20815;-69
2022/01/19 00:54:59;;;;;;;0.40;0.30;;;;;;;6.06;92.67;102698.44;5096660;28;20473;-72
2022/01/19 00:57:25;;;;;;;0.40;0.20;;;;;;;6.05;92.80;102710.25;5096650;28;20441;-72
2022/01/19 00:59:52;;;;;;;0.40;0.30;;;;;;;6.07;92.72;102708.19;5096701;28;20440;-72
2022/01/19 01:02:19;;;;;;;0.50;0.30;;;;;;;5.99;93.12;102713.81;5096238;28;20491;-70
2022/01/19 01:04:45;;;;;;;0.40;0.30;;;;;;;6.01;93.02;102709.03;5096535;28;20436;-69
2022/01/19 01:07:12;;;;;;;0.40;0.30;;;;;;;6.03;92.74;102713.16;5096354;28;20448;-69
2022/01/19 01:09:38;;;;;;;0.40;0.30;;;;;;;5.99;93.09;102725.41;5096433;28;20432;-69
2022/01/19 01:12:12;;;;;;;0.40;0.30;;;;;;;6.00;93.14;102718.97;5096381;28;20440;-69
2022/01/19 01:20:09;;;;;;;0.40;0.30;;;;;;;5.99;92.67;102689.63;5096063;28;20432;-68
2022/01/19 01:22:37;;;;;;;0.40;0.30;;;;;;;5.97;92.56;102687.13;5096154;28;20488;-68
2022/01/19 01:25:04;;;;;;;0.40;0.20;;;;;;;5.96;92.85;102682.78;5096105;28;20493;-68
2022/01/19 01:27:32;;;;;;;0.40;0.30;;;;;;;6.00;92.84;102672.41;5095692;28;20550;-68
2022/01/19 01:29:59;;;;;;;0.40;0.30;;;;;;;6.02;92.84;102673.88;5096018;28;20474;-68
2022/01/19 01:32:25;;;;;;;0.40;0.20;;;;;;;5.96;92.80;102658.59;5095960;28;20448;-68
2022/01/19 01:34:51;;;;;;;0.40;0.30;;;;;;;5.98;92.82;102650.31;5095940;28;20445;-69
2022/01/19 01:37:18;;;;;;;0.40;0.30;;;;;;;6.00;92.90;102653.59;5095896;28;20446;-68
2022/01/19 01:39:45;;;;;;;0.40;0.30;;;;;;;6.04;92.97;102644.88;5095867;28;20440;-68
2022/01/19 01:42:16;;;;;;;0.40;0.30;;;;;;;6.03;92.86;102643.22;5095873;28;20811;-68
2022/01/19 01:44:48;;;;;;;0.40;0.30;;;;;;;6.02;92.97;102638.03;5095916;28;20503;-68
2022/01/19 01:47:16;;;;;;;0.40;0.30;;;;;;;6.02;93.00;102633.50;5095641;28;20808;-69
2022/01/19 01:53:16;;;;;;;0.40;0.30;;;;;;;6.03;93.31;102626.25;5095339;28;20937;-69
2022/01/19 01:55:17;;;;;;;0.40;0.30;;;;;;;6.01;93.33;102596.06;5095292;28;20432;-68
2022/01/19 01:57:43;;;;;;;0.40;0.27;;;;;;;6.04;93.17;102582.19;5095511;28;20436;-68
2022/01/19 02:00:14;;;;;;;0.40;0.30;;;;;;;6.01;93.13;102588.81;5095440;28;20444;-70
2022/01/19 02:02:41;;;;;;;0.40;0.30;;;;;;;6.05;93.04;102587.31;5095104;28;20488;-68
2022/01/19 02:05:09;;;;;;;1.43;1.37;;;;;;;6.03;93.42;102580.53;5095246;28;20463;-69
2022/01/19 02:07:43;;;;;;;0.40;0.30;;;;;;;6.02;93.49;102579.72;5095195;28;20476;-68
2022/01/19 02:10:20;;;;;;;0.40;0.20;;;;;;;6.02;93.59;102576.19;5094874;28;20992;-68
2022/01/19 02:15:56;;;;;;;0.40;0.30;;;;;;;6.02;93.47;102590.47;5056063;28;20442;-69
2022/01/19 02:23:55;;;;;;;0.40;0.23;;;;;;;5.94;93.99;102587.25;5094703;28;20444;-70
2022/01/19 02:26:27;;;;;;;0.40;0.30;;;;;;;5.99;93.85;102574.78;5094581;28;20893;-70
2022/01/19 02:29:05;;;;;;;0.40;0.30;;;;;;;6.04;93.40;102549.91;5094821;28;20471;-69
2022/01/19 02:36:32;;;;;;;0.40;0.23;;;;;;;6.06;93.60;102539.72;5094824;28;20433;-69
2022/01/19 02:40:18;;;;;;;0.40;0.30;;;;;;;6.05;93.13;102522.75;5094423;28;20769;-69
2022/01/19 02:43:03;;;;;;;0.40;0.30;;;;;;;6.06;93.35;102512.81;5094611;28;20568;-69
2022/01/19 02:50:59;;;;;;;0.40;0.20;;;;;;;6.05;93.21;102500.44;5094349;28;20418;-69
2022/01/19 02:53:27;;;;;;;0.40;0.20;;;;;;;6.05;93.10;102512.00;5094498;28;20464;-69
2022/01/19 02:55:53;;;;;;;0.40;0.30;;;;;;;6.06;93.36;102507.44;5094379;28;20447;-69
2022/01/19 02:58:22;;;;;;;0.40;0.20;;;;;;;6.07;93.41;102495.66;5094333;28;20450;-69
2022/01/19 03:09:16;;;;;;;0.40;0.30;;;;;;;6.05;93.41;102462.75;5051650;28;20461;-70
2022/01/19 03:11:42;;;;;;;0.40;0.20;;;;;;;6.09;93.21;102461.28;5075241;28;20448;-69
2022/01/19 03:14:09;;;;;;;0.40;0.30;;;;;;;6.06;93.31;102459.03;5093975;28;20464;-69
2022/01/19 03:16:35;;;;;;;0.40;0.30;;;;;;;6.04;93.35;102456.56;5094030;28;20448;-69
2022/01/19 03:19:03;;;;;;;0.40;0.27;;;;;;;6.06;93.24;102451.81;5093970;28;20475;-69
2022/01/19 03:21:29;;;;;;;0.40;0.23;;;;;;;6.02;93.31;102453.28;5093966;28;20480;-69
2022/01/19 03:23:57;;;;;;;0.40;0.30;;;;;;;6.02;93.25;102449.75;5093833;28;20464;-69
2022/01/19 03:26:25;;;;;;;0.40;0.30;;;;;;;6.03;93.39;102444.16;5093814;28;20440;-70
2022/01/19 03:28:51;;;;;;;0.40;0.20;;;;;;;6.05;93.24;102433.19;5093773;28;20480;-69
2022/01/19 03:31:18;;;;;;;0.40;0.20;;;;;;;6.03;93.32;102432.59;5093773;28;20440;-69
2022/01/19 03:33:45;;;;;;;0.40;0.27;;;;;;;6.02;93.11;102426.41;5093683;28;20849;-70
2022/01/19 03:36:11;;;;;;;0.40;0.30;;;;;;;6.03;93.08;102428.03;5093649;28;20501;-70
2022/01/19 03:38:38;;;;;;;0.40;0.30;;;;;;;6.04;93.14;102428.84;5093668;28;20436;-70
2022/01/19 03:41:04;;;;;;;0.40;0.30;;;;;;;6.00;92.75;102420.41;5093650;28;20444;-71
2022/01/19 03:43:32;;;;;;;0.40;0.30;;;;;;;5.99;92.75;102405.31;5093218;28;20999;-70
2022/01/19 03:46:01;;;;;;;0.40;0.27;;;;;;;6.00;92.82;102416.88;5093592;28;20440;-70
2022/01/19 03:48:37;;;;;;;0.40;0.20;;;;;;;5.95;92.94;102414.06;5093496;28;20506;-70
2022/01/19 03:51:04;;;;;;;0.40;0.30;;;;;;;5.99;92.75;102415.25;5092871;28;20456;-70
2022/01/19 03:53:31;;;;;;;0.40;0.20;;;;;;;6.03;92.54;102403.00;5093451;28;20871;-69
2022/01/19 03:55:58;;;;;;;0.40;0.20;;;;;;;6.01;92.78;102403.22;5093177;28;20948;-70
2022/01/19 03:58:25;;;;;;;0.40;0.30;;;;;;;6.02;92.57;102398.66;5093480;28;20885;-70
2022/01/19 04:00:56;;;;;;;0.40;0.20;;;;;;;6.00;92.68;102408.81;5093456;28;20436;-70
2022/01/19 04:03:30;;;;;;;0.40;0.20;;;;;;;5.99;92.34;102407.19;5093020;28;20522;-69
2022/01/19 04:06:01;;;;;;;0.40;0.20;;;;;;;5.94;92.41;102390.91;5093363;28;20465;-69
2022/01/19 04:08:29;;;;;;;0.40;0.30;;;;;;;5.91;92.89;102388.63;5093234;28;20467;-68
2022/01/19 04:10:55;;;;;;;0.40;0.23;;;;;;;5.87;93.25;102387.44;5093292;28;20448;-69
2022/01/19 04:13:32;;;;;;;0.40;0.30;;;;;;;5.83;93.52;102389.75;5093178;28;20464;-69
2022/01/19 04:16:00;;;;;;;0.40;0.30;;;;;;;5.88;93.23;102391.75;5097103;28;20959;-69
2022/01/19 04:18:27;;;;;;;0.40;0.20;;;;;;;5.90;93.32;102378.94;5097163;28;20952;-69
2022/01/19 04:20:53;;;;;;;0.40;0.30;;;;;;;5.92;93.26;102383.03;5097389;28;20444;-69
2022/01/19 04:23:21;;;;;;;0.40;0.30;;;;;;;5.90;93.20;102370.84;5097259;28;20468;-69
2022/01/19 04:25:47;;;;;;;0.40;0.33;;;;;;;5.86;93.54;102364.28;5096995;28;20819;-69
2022/01/19 04:28:14;;;;;;;3.90;3.70;;;;;;;5.89;93.26;102359.28;5097095;28;20483;-69
2022/01/19 04:30:43;;;;;;;0.40;0.30;;;;;;;5.86;93.30;102361.59;5097250;28;20444;-69
2022/01/19 04:33:13;;;;;;;0.40;0.20;;;;;;;5.81;93.62;102352.34;5097076;28;20463;-69
2022/01/19 04:35:47;;;;;;;0.40;0.20;;;;;;;5.86;93.53;102350.84;5097158;28;20425;-69
2022/01/19 04:44:06;;;;;;;0.50;0.40;;;;;;;5.93;93.08;102320.16;5079176;28;20459;-69
2022/01/19 05:01:35;;;;;;;0.40;0.30;;;;;;;5.81;92.75;102301.25;5096720;28;20408;-68
2022/01/19 05:03:25;;;;;;;0.50;0.40;;;;;;;5.72;93.29;102307.97;5096172;28;20861;-68
2022/01/19 05:05:59;;;;;;;0.40;0.20;;;;;;;5.74;93.38;102307.75;5096616;28;20424;-68
2022/01/19 05:08:45;;;;;;;0.40;0.20;;;;;;;5.66;93.84;102295.44;5096169;28;20977;-68
2022/01/19 05:13:55;;;;;;;0.40;0.40;;;;;;;5.65;93.46;102290.28;5096237;28;20478;-68
2022/01/19 05:16:22;;;;;;;1.90;1.80;;;;;;;5.64;93.72;102289.47;5096333;28;20440;-67
2022/01/19 05:18:50;;;;;;;0.40;0.20;;;;;;;5.65;93.54;102291.09;5096290;28;20436;-68
2022/01/19 05:21:18;;;;;;;0.40;0.30;;;;;;;5.67;93.72;102286.34;5096287;28;20451;-68
2022/01/19 05:23:45;;;;;;;0.40;0.30;;;;;;;5.68;93.59;102279.91;5095847;28;20460;-68
2022/01/19 05:26:12;;;;;;;0.40;0.30;;;;;;;5.68;93.92;102281.78;5095729;28;20960;-68
2022/01/19 05:28:39;;;;;;;0.40;0.30;;;;;;;5.59;93.82;102275.88;5096023;28;20492;-68
2022/01/19 05:31:06;;;;;;;0.40;0.30;;;;;;;5.66;94.17;102270.41;5095792;28;20436;-68
2022/01/19 05:33:32;;;;;;;0.40;0.30;;;;;;;5.66;94.17;102278.47;5095964;28;20489;-68
2022/01/19 05:35:59;;;;;;;0.60;0.30;;;;;;;5.67;93.93;102267.53;5095984;28;20444;-68
2022/01/19 05:38:27;;;;;;;0.40;0.30;;;;;;;5.69;93.58;102273.47;5095913;28;20817;-68
2022/01/19 05:40:54;;;;;;;0.40;0.30;;;;;;;5.64;93.52;102267.97;5095891;28;20440;-69
2022/01/19 05:43:20;;;;;;;0.40;0.30;;;;;;;5.59;93.91;102258.94;5095773;28;20563;-69
2022/01/19 05:45:47;;;;;;;0.40;0.30;;;;;;;5.60;94.09;102256.03;5095803;28;20443;-69
2022/01/19 05:48:13;;;;;;;0.40;0.20;;;;;;;5.59;94.13;102256.25;5095480;28;20443;-75
2022/01/19 05:51:04;;;;;;;0.40;0.30;;;;;;;5.57;93.97;102251.91;5095433;28;20449;-73
2022/01/19 05:53:32;;;;;;;0.40;0.30;;;;;;;5.51;94.20;102247.44;5093876;28;20467;-71
2022/01/19 05:55:58;;;;;;;0.40;0.30;;;;;;;5.57;94.23;102256.47;5095252;28;20445;-71
2022/01/19 05:58:25;;;;;;;0.40;0.20;;;;;;;5.60;94.31;102253.34;5095584;28;20463;-72
2022/01/19 06:00:51;;;;;;;0.40;0.30;;;;;;;5.60;94.54;102244.44;5095195;28;20968;-69
2022/01/19 06:03:18;;;;;;;0.40;0.30;;;;;;;5.56;94.63;102234.16;5095011;28;20482;-71
2022/01/19 06:05:45;;;;;;;0.40;0.20;;;;;;;5.59;94.01;102240.94;5095383;28;20451;-74
2022/01/19 06:08:28;;;;;;;0.40;0.30;;;;;;;5.58;93.89;102239.31;5095332;28;20890;-70
2022/01/19 06:10:56;;;;;;;0.40;0.30;;;;;;;5.51;94.35;102230.50;5095337;28;20420;-69
2022/01/19 06:13:24;;;;;;;0.40;0.20;;;;;;;5.50;94.92;102223.50;5095150;28;20463;-69
2022/01/19 06:15:51;;;;;;;0.40;0.30;;;;;;;5.56;94.65;102223.41;5095132;28;20807;-66
2022/01/19 06:18:18;;;;;;;0.73;0.70;;;;;;;5.57;94.41;102200.84;5095121;28;20441;-66
2022/01/19 06:20:46;;;;;;;0.40;0.20;;;;;;;5.58;94.61;102193.63;5074859;28;20438;-66
2022/01/19 06:23:12;;;;;;;0.40;0.20;;;;;;;5.60;94.75;102180.75;5074648;28;20457;-66
2022/01/19 06:25:39;;;;;;;3.63;3.33;;;;;;;5.57;94.59;102165.09;5074605;28;20445;-68
2022/01/19 06:28:07;;;;;;;0.40;0.30;;;;;;;5.56;94.65;102166.94;5074381;28;20441;-76
2022/01/19 06:30:34;;;;;;;0.40;0.30;;;;;;;5.57;94.37;102159.69;5074484;28;20491;-73
2022/01/19 06:33:00;;;;;;;0.40;0.20;;;;;;;5.57;94.28;102154.34;5074513;28;20460;-70
2022/01/19 06:35:27;;;;;;;0.40;0.20;;;;;;;5.48;94.37;102143.09;5074509;28;20515;-69
2022/01/19 06:37:54;;;;;;;0.40;0.30;;;;;;;5.49;94.16;102143.91;5074066;28;20815;-69
2022/01/19 06:40:25;;;;;;;0.40;0.30;;;;;;;5.47;94.61;102135.25;5074486;28;20460;-69
2022/01/19 06:42:52;;;;;;;2.43;2.33;;;;;;;5.48;94.83;102129.66;5074398;28;20552;-69
2022/01/19 06:45:22;;;;;;;0.40;0.20;;;;;;;5.51;94.58;102120.31;5074304;28;20447;-69
2022/01/19 06:47:49;;;;;;;0.40;0.20;;;;;;;5.50;94.50;102122.19;5073974;28;20958;-70
2022/01/19 06:50:19;;;;;;;0.40;0.30;;;;;;;5.51;94.45;102120.31;5073843;28;21012;-69
2022/01/19 06:52:45;;;;;;;0.40;0.20;;;;;;;5.51;94.18;102101.50;5074104;28;20467;-70
2022/01/19 06:55:12;;;;;;;2.30;2.20;;;;;;;5.49;94.46;102100.91;5074134;28;20460;-71
2022/01/19 06:57:39;;;;;;;0.40;0.30;;;;;;;5.48;94.38;102097.41;5074071;28;20449;-74
2022/01/19 07:00:06;;;;;;;0.40;0.20;;;;;;;5.50;94.14;102099.88;5074152;28;20464;-70
2022/01/19 07:02:34;;;;;;;0.50;0.30;;;;;;;5.49;93.97;102092.84;5073673;28;20460;-70
2022/01/19 07:05:00;;;;;;;0.40;0.20;;;;;;;5.49;93.99;102093.69;5073814;28;20433;-70
2022/01/19 07:07:27;;;;;;;0.40;0.30;;;;;;;5.46;94.06;102096.00;5073932;28;20445;-70
2022/01/19 07:09:54;;;;;;;0.40;0.30;;;;;;;5.47;94.21;102085.00;5073784;28;20492;-70
2022/01/19 07:12:21;;;;;;;0.40;0.40;;;;;;;5.47;94.38;102073.44;5073417;28;20445;-71
2022/01/19 07:14:47;;;;;;;0.40;0.30;;;;;;;5.47;94.09;102060.84;5073842;28;20448;-74
2022/01/19 07:17:14;;;;;;;0.40;0.20;;;;;;;5.43;93.85;102048.09;5073784;28;20479;-74
2022/01/19 07:19:41;;;;;;;0.40;0.20;;;;;;;5.40;94.20;102043.16;5073830;28;20445;-75
2022/01/19 07:22:08;;;;;;;0.40;0.30;;;;;;;5.37;94.56;102047.16;5073708;28;20454;-74
2022/01/19 07:24:34;;;;;;;0.40;0.20;;;;;;;5.38;94.16;102048.78;5074012;28;20503;-74
2022/01/19 07:27:01;;;;;;;0.40;0.30;;;;;;;5.38;94.65;102048.78;5074261;28;20445;-74
2022/01/19 07:29:28;;;;;;;0.40;0.20;;;;;;;5.41;94.70;102047.50;5073796;28;20481;-74
2022/01/19 07:31:56;;;;;;;0.40;0.30;;;;;;;5.41;94.45;102042.97;5073563;28;20441;-75
2022/01/19 07:34:23;;;;;;;5.07;2.97;;;;;;;5.45;94.21;102040.63;5073262;28;20460;-75
2022/01/19 07:36:51;;;;;;;0.40;0.23;;;;;;;5.43;94.10;102043.53;5073370;28;20870;-73
2022/01/19 07:39:18;;;;;;;0.40;0.20;;;;;;;5.46;94.33;102035.03;5073409;28;20441;-75
2022/01/19 07:41:44;;;;;;;0.40;0.20;;;;;;;5.50;93.75;102027.31;5073676;28;20453;-77
2022/01/19 07:44:10;;;;;;;0.40;0.30;;;;;;;5.49;93.49;102017.59;5073431;28;20472;-77
2022/01/19 07:46:37;;;;;;;0.40;0.30;;;;;;;5.50;93.25;102012.00;5073569;28;20464;-77
2022/01/19 07:49:03;;;;;;;1.90;1.80;;;;;;;5.51;93.30;102004.75;5072877;28;20441;-75
2022/01/19 07:51:30;;;;;;;0.40;0.20;;;;;;;5.54;93.39;102015.06;5073116;28;20449;-75
2022/01/19 07:53:58;;;;;;;0.40;0.30;;;;;;;5.51;93.37;102004.75;5073157;28;20465;-77
2022/01/19 07:56:24;;;;;;;0.40;0.20;;;;;;;5.47;93.55;102007.09;5073850;28;20811;-74
2022/01/19 07:58:51;;;;;;;0.40;0.30;;;;;;;5.45;93.78;102003.00;5073602;28;20444;-74
2022/01/19 08:01:19;;;;;;;0.40;0.30;;;;;;;5.45;93.70;101990.41;5073684;28;20808;-74
2022/01/19 08:03:45;;;;;;;0.40;0.30;;;;;;;5.45;93.52;101981.50;5072781;28;20488;-74
2022/01/19 08:06:12;;;;;;;0.40;0.20;;;;;;;5.41;93.24;101985.72;5073288;28;20452;-74
2022/01/19 08:08:38;;;;;;;0.40;0.30;;;;;;;5.32;93.78;101979.88;5073234;28;20451;-73
2022/01/19 08:11:06;;;;;;;0.40;0.20;;;;;;;5.34;93.83;101979.63;5073883;28;20492;-73
2022/01/19 08:13:33;;;;;;;0.40;0.20;;;;;;;5.31;94.06;101981.72;5073410;28;20548;-74
2022/01/19 08:15:59;;;;;;;0.40;0.20;;;;;;;5.25;94.01;101971.91;5073625;28;20476;-74
2022/01/19 08:18:26;;;;;;;0.40;0.20;;;;;;;5.23;94.33;101959.75;5073315;28;20534;-74
2022/01/19 08:20:53;;;;;;;0.40;0.30;;;;;;;5.22;94.18;101958.94;5073237;28;20512;-73
2022/01/19 08:23:19;;;;;;;0.40;0.30;;;;;;;5.18;94.56;101963.13;5072896;28;20837;-74
2022/01/19 08:25:46;;;;;;;0.40;0.20;;;;;;;5.13;95.14;101963.00;5072991;28;20451;-73
2022/01/19 08:28:14;;;;;;;0.40;0.30;;;;;;;5.15;94.99;101957.41;5073011;28;20453;-74
2022/01/19 08:30:41;;;;;;;0.40;0.30;;;;;;;5.16;95.11;101951.78;5072501;28;20576;-72
2022/01/19 08:33:09;;;;;;;0.40;0.23;;;;;;;5.17;94.92;101947.25;5072790;28;20476;-72
2022/01/19 08:35:36;;;;;;;0.40;0.20;;;;;;;5.13;94.27;101949.56;5072611;28;20874;-73
2022/01/19 08:38:03;;;;;;;0.40;0.30;;;;;;;5.09;94.70;101943.03;5072622;28;20451;-73
2022/01/19 08:40:30;;;;;;;0.40;0.30;;;;;;;5.07;94.99;101939.75;5072874;28;20437;-72
2022/01/19 08:42:57;;;;;;;0.40;0.30;;;;;;;5.08;95.26;101938.69;5072385;28;20974;-73
2022/01/19 08:45:25;;;;;;;0.40;0.20;;;;;;;5.07;95.08;101942.44;5072692;28;20450;-73
2022/01/19 08:47:53;;;;;;;0.40;0.30;;;;;;;5.09;94.75;101932.31;5072601;28;20456;-74
2022/01/19 08:50:20;;;;;;;0.40;0.20;;;;;;;5.09;94.79;101937.66;5072625;28;20493;-75
2022/01/19 08:52:47;;;;;;;0.40;0.30;;;;;;;5.13;94.45;101925.38;5072563;28;20457;-75
2022/01/19 08:55:13;;;;;;;0.40;0.30;;;;;;;5.10;93.99;101928.56;5072728;28;20436;-73
2022/01/19 08:57:40;;;;;;;0.70;0.70;;;;;;;5.10;94.17;101923.19;5072653;28;20445;-74
2022/01/19 09:00:11;;;;;;;0.53;0.53;;;;;;;5.10;94.42;101928.56;5073484;28;20437;-75
2022/01/19 09:02:39;;;;;;;0.40;0.30;;;;;;;5.09;94.72;101929.63;5076061;28;20854;-73
2022/01/19 09:05:07;;;;;;;0.40;0.27;;;;;;;5.15;94.17;101925.19;5076263;28;20446;-75
2022/01/19 09:07:33;;;;;;;0.40;0.20;;;;;;;5.18;94.48;101928.22;5076459;28;20452;-74
2022/01/19 09:10:00;;;;;;;0.40;0.30;;;;;;;5.21;94.33;101925.06;5076395;28;20481;-75
2022/01/19 09:12:26;;;;;;;0.40;0.30;;;;;;;5.23;94.39;101917.59;5076676;28;20449;-74
2022/01/19 09:14:53;;;;;;;0.40;0.27;;;;;;;5.25;93.91;101903.94;5076104;28;20441;-74
2022/01/19 09:17:19;;;;;;;0.40;0.30;;;;;;;5.29;93.48;101913.16;5076143;28;20441;-75
2022/01/19 09:19:47;;;;;;;0.40;0.30;;;;;;;5.34;92.75;101901.72;5075936;28;20446;-73
2022/01/19 09:22:14;;;;;;;0.40;0.30;;;;;;;5.35;92.71;101903.34;5075956;28;20446;-75
2022/01/19 09:24:42;;;;;;;0.40;0.30;;;;;;;5.35;92.30;101906.03;5075983;28;20434;-73
2022/01/19 09:27:09;;;;;;;0.97;0.97;;;;;;;5.38;92.86;101894.81;5075869;28;20468;-72
2022/01/19 09:29:38;;;;;;;0.40;0.30;;;;;;;5.45;93.03;101895.53;5075766;28;20452;-71
2022/01/19 09:32:07;;;;;;;0.40;0.30;;;;;;;5.48;92.52;101893.16;5075814;28;20502;-73
2022/01/19 09:34:34;;;;;;;0.40;0.23;;;;;;;5.52;92.17;101888.16;5075720;28;20792;-73
2022/01/19 09:37:02;;;;;;;0.40;0.20;;;;;;;5.44;91.42;101886.63;5075650;28;20445;-72
2022/01/19 09:39:28;;;;;;;0.40;0.20;;;;;;;5.48;91.52;101885.13;5075683;28;20445;-75
2022/01/19 09:41:56;;;;;;;0.40;0.20;;;;;;;5.49;91.13;101880.56;5075616;28;20445;-77
2022/01/19 09:44:25;;;;;;;1.07;1.00;;;;;;;5.46;90.55;101884.53;5075506;28;20461;-75
2022/01/19 09:46:53;;;;;;;0.40;0.27;;;;;;;5.47;90.36;101882.66;5075600;28;20441;-75
2022/01/19 09:49:21;;;;;;;1.80;1.70;;;;;;;5.47;90.46;101880.78;5075457;28;20449;-75
2022/01/19 09:51:50;;;;;;;0.40;0.20;;;;;;;5.44;90.41;101885.81;5075434;28;20485;-74
2022/01/19 09:54:21;;;;;;;0.40;0.20;;;;;;;5.47;90.53;101886.16;5075407;28;20508;-71
2022/01/19 09:56:49;;;;;;;0.40;0.30;;;;;;;5.48;90.24;101876.22;5075273;28;20937;-73
2022/01/19 09:59:16;;;;;;;0.40;0.30;;;;;;;5.44;90.14;101880.44;5075291;28;20437;-77
2022/01/19 10:01:50;;;;;;;0.40;0.30;;;;;;;5.40;89.70;101864.00;5075309;28;20874;-74
2022/01/19 10:04:18;;;;;;;0.40;0.30;;;;;;;5.41;89.82;101875.56;5075292;28;20830;-77
2022/01/19 10:06:44;;;;;;;0.40;0.20;;;;;;;5.45;89.95;101865.97;5074573;28;20429;-72
2022/01/19 10:09:11;;;;;;;0.40;0.27;;;;;;;5.42;90.23;101850.31;5074432;28;20441;-72
2022/01/19 10:17:09;;;;;;;24.40;22.47;;;;;;;5.48;89.36;101849.38;5074822;28;20404;-72
2022/01/19 10:19:38;;;;;;;0.40;0.30;;;;;;;5.50;89.35;101841.91;5074937;28;20498;-74
2022/01/19 10:22:13;;;;;;;0.40;0.27;;;;;;;5.53;89.81;101841.41;5074936;28;20441;-72
2022/01/19 10:24:47;;;;;;;0.40;0.27;;;;;;;5.51;89.49;101830.91;5074803;28;20803;-73
2022/01/19 10:27:40;;;;;;;0.40;0.30;;;;;;;5.52;89.56;101824.47;5074780;28;20799;-75
2022/01/19 10:30:22;;;;;;;0.40;0.30;;;;;;;5.56;89.06;101822.13;5070794;28;21002;-75
2022/01/19 10:32:51;;;;;;;0.40;0.30;;;;;;;5.56;88.25;101819.44;5074503;28;20457;-75
2022/01/19 10:35:23;;;;;;;0.40;0.27;;;;;;;5.51;88.95;101822.03;5074553;28;20442;-75
2022/01/19 10:38:06;;;;;;;0.40;0.23;;;;;;;5.51;88.59;101820.16;5074828;28;20429;-75
2022/01/19 10:40:34;;;;;;;0.40;0.30;;;;;;;5.40;88.52;101820.16;5074267;28;20417;-74
2022/01/19 10:43:29;;;;;;;0.40;0.30;;;;;;;5.38;88.61;101809.66;5074487;28;20472;-75
2022/01/19 10:45:58;;;;;;;0.40;0.30;;;;;;;5.40;89.02;101801.34;5074648;28;20430;-75
2022/01/19 10:48:36;;;;;;;0.40;0.20;;;;;;;5.40;89.00;101810.25;5073994;28;20956;-75
2022/01/19 10:51:11;;;;;;;0.40;0.20;;;;;;;5.41;88.89;101808.38;5074342;28;20464;-76
2022/01/19 10:53:39;;;;;;;0.40;0.30;;;;;;;5.43;89.14;101809.75;5073909;28;20974;-75
2022/01/19 10:56:06;;;;;;;0.40;0.40;;;;;;;5.51;88.66;101801.34;5074367;28;20445;-76
2022/01/19 10:58:53;;;;;;;0.40;0.30;;;;;;;5.59;88.86;101783.22;5074084;28;20457;-76
2022/01/19 11:01:36;;;;;;;0.40;0.20;;;;;;;5.70;87.91;101775.13;5073883;28;20922;-76
2022/01/19 11:04:20;;;;;;;0.40;0.30;;;;;;;5.73;87.52;101766.59;5073579;28;21019;-75
2022/01/19 11:06:46;;;;;;;0.40;0.30;;;;;;;5.83;87.78;101747.94;5073912;28;20468;-75
2022/01/19 11:09:14;;;;;;;0.40;0.30;;;;;;;5.93;87.21;101736.63;5074041;28;20449;-75
2022/01/19 11:11:43;;;;;;;0.40;0.30;;;;;;;6.05;86.38;101731.16;5073762;28;20481;-76
2022/01/19 11:14:13;;;;;;;0.40;0.30;;;;;;;6.06;85.16;101714.81;5073831;28;20548;-75
2022/01/19 11:16:40;;;;;;;5.20;4.90;;;;;;;5.95;85.28;101712.16;5073844;28;20430;-74
2022/01/19 11:19:06;;;;;;;0.40;0.30;;;;;;;5.93;85.67;101712.41;5073361;28;20939;-74
2022/01/19 11:21:41;;;;;;;0.40;0.30;;;;;;;5.89;85.89;101694.25;5073364;28;20974;-74
2022/01/19 11:24:15;;;;;;;0.40;0.30;;;;;;;5.88;86.23;101692.63;5073460;28;20476;-74
2022/01/19 11:26:41;;;;;;;0.40;0.23;;;;;;;5.86;85.93;101678.63;5073604;28;20429;-74
2022/01/19 11:29:20;;;;;;;0.40;0.20;;;;;;;5.84;85.73;101678.84;5073538;28;20445;-74
2022/01/19 11:31:48;;;;;;;0.40;0.30;;;;;;;5.77;86.48;101670.97;5073519;28;20552;-74
2022/01/19 11:34:15;;;;;;;0.40;0.30;;;;;;;5.74;86.58;101679.50;5073552;28;20465;-75
2022/01/19 11:36:43;;;;;;;0.40;0.30;;;;;;;5.78;86.82;101664.50;5073576;28;20437;-74
2022/01/19 11:39:12;;;;;;;0.40;0.30;;;;;;;5.73;86.18;101659.06;5073487;28;20815;-74
2022/01/19 11:41:42;;;;;;;0.40;0.30;;;;;;;5.65;87.03;101654.06;5073468;28;20444;-74
2022/01/19 11:44:10;;;;;;;0.40;0.30;;;;;;;5.62;86.54;101667.16;5074749;28;20468;-74
2022/01/19 11:46:40;;;;;;;0.70;0.70;;;;;;;5.53;86.74;101658.69;5073074;28;20819;-74
2022/01/19 11:49:09;;;;;;;0.40;0.30;;;;;;;5.55;86.66;101638.59;5073713;28;20444;-75
2022/01/19 11:51:38;;;;;;;0.40;0.30;;;;;;;5.56;86.52;101636.72;5073322;28;20481;-75
2022/01/19 11:54:08;;;;;;;0.40;0.30;;;;;;;5.50;87.26;101613.50;5073232;28;20522;-74
2022/01/19 11:57:05;;;;;;;0.40;0.20;;;;;;;5.45;87.06;101618.78;5073553;28;20441;-74
2022/01/19 11:59:35;;;;;;;0.40;0.30;;;;;;;5.49;87.62;101620.75;5072974;28;20441;-72
2022/01/19 12:02:36;;;;;;;0.40;0.30;;;;;;;5.64;86.96;101620.19;5073358;28;20540;-74
2022/01/19 12:05:15;;;;;;;0.40;0.30;;;;;;;5.53;86.36;101607.63;5073472;28;20429;-74
2022/01/19 12:07:44;;;;;;;0.40;0.30;;;;;;;5.42;85.39;101595.06;5072866;28;20413;-74
2022/01/19 12:10:14;;;;;;;0.83;0.83;;;;;;;5.36;85.95;101585.28;5072888;28;20445;-75
2022/01/19 12:12:47;;;;;;;0.40;0.30;;;;;;;5.28;86.73;101576.56;5072679;28;20461;-74
2022/01/19 12:15:49;;;;;;;0.40;0.20;;;;;;;5.31;86.86;101569.88;5072777;28;20430;-74
2022/01/19 12:18:38;;;;;;;0.40;0.30;;;;;;;5.30;86.87;101558.34;5072667;28;20425;-74
2022/01/19 12:21:05;;;;;;;1.90;1.80;;;;;;;5.28;86.25;101543.53;5072696;28;20429;-74
2022/01/19 12:23:34;;;;;;;0.40;0.20;;;;;;;5.29;86.78;101540.59;5072573;28;20464;-74
2022/01/19 12:26:03;;;;;;;0.40;0.23;;;;;;;5.25;86.76;101538.63;5072712;28;20536;-75
2022/01/19 12:28:44;;;;;;;0.40;0.20;;;;;;;5.25;86.53;101538.63;5072588;28;20533;-74
2022/01/19 12:31:31;;;;;;;0.40;0.20;;;;;;;5.15;86.00;101528.53;5072631;28;20465;-74
2022/01/19 12:34:21;;;;;;;0.40;0.20;;;;;;;5.06;86.60;101508.50;5072713;28;20464;-75
2022/01/19 12:36:53;;;;;;;0.40;0.30;;;;;;;5.01;86.26;101511.09;5075924;28;20899;-70
2022/01/19 12:39:42;;;;;;;0.40;0.30;;;;;;;4.86;86.62;101492.81;5076448;28;20429;-72
2022/01/19 12:42:17;;;;;;;0.40;0.23;;;;;;;4.74;87.82;101484.03;5074312;28;20456;-73
2022/01/19 12:44:46;;;;;;;0.40;0.30;;;;;;;4.56;88.17;101466.25;5076406;28;20476;-72
2022/01/19 12:47:48;;;;;;;0.40;0.30;;;;;;;4.48;89.17;101456.69;5076352;28;20445;-73
2022/01/19 12:50:49;;;;;;;0.40;0.30;;;;;;;4.54;89.53;101462.97;5075861;28;20934;-74